createdAt,value
2022-08-28T00:03:38.479Z,14.80
2022-08-28T00:07:47.926Z,14.80
2022-08-28T00:11:54.899Z,14.70
2022-08-28T00:16:01.726Z,14.60
2022-08-28T00:20:10.854Z,14.60
2022-08-28T00:24:18.528Z,14.60
2022-08-28T00:28:25.486Z,14.50
2022-08-28T00:32:34.949Z,14.50
2022-08-28T00:36:41.797Z,14.40
2022-08-28T00:40:52.933Z,14.40
2022-08-28T00:45:01.927Z,14.40
2022-08-28T00:49:09.063Z,14.30
2022-08-28T00:53:16.368Z,14.20
2022-08-28T00:57:37.457Z,14.10
2022-08-28T01:01:46.995Z,14.10
2022-08-28T01:05:53.979Z,14.00
2022-08-28T01:10:01.213Z,13.90
2022-08-28T01:14:09.126Z,13.90
2022-08-28T01:18:17.093Z,13.90
2022-08-28T01:22:29.050Z,13.80
2022-08-28T01:26:38.468Z,13.80
2022-08-28T01:30:47.760Z,13.70
2022-08-28T01:34:54.523Z,13.70
2022-08-28T01:39:16.200Z,13.70
2022-08-28T01:43:26.253Z,13.60
2022-08-28T01:47:33.029Z,13.60
2022-08-28T01:51:41.312Z,13.70
2022-08-28T01:55:48.011Z,13.70
2022-08-28T01:59:54.885Z,13.70
2022-08-28T02:04:04.419Z,13.60
2022-08-28T02:08:11.361Z,13.60
2022-08-28T02:12:18.153Z,13.50
2022-08-28T02:16:25.726Z,13.40
2022-08-28T02:20:33.940Z,13.40
2022-08-28T02:24:40.846Z,13.40
2022-08-28T02:28:48.378Z,13.40
2022-08-28T02:32:55.333Z,13.30
2022-08-28T02:37:02.467Z,13.20
2022-08-28T02:41:09.599Z,13.20
2022-08-28T02:45:18.680Z,13.30
2022-08-28T02:49:25.396Z,13.20
2022-08-28T02:53:39.156Z,13.20
2022-08-28T02:57:47.485Z,13.10
2022-08-28T03:01:54.224Z,13.10
2022-08-28T03:06:02.347Z,13.10
2022-08-28T03:10:10.116Z,13.00
2022-08-28T03:14:16.828Z,12.90
2022-08-28T03:18:30.072Z,12.90
2022-08-28T03:22:55.706Z,12.90
2022-08-28T03:27:02.617Z,12.80
2022-08-28T03:31:11.727Z,12.80
2022-08-28T03:35:18.976Z,12.80
2022-08-28T03:39:25.675Z,12.70
2022-08-28T03:43:33.381Z,12.60
2022-08-28T03:47:42.096Z,12.50
2022-08-28T03:51:49.911Z,12.50
2022-08-28T03:55:58.066Z,12.50
2022-08-28T04:00:08.584Z,12.50
2022-08-28T04:04:15.355Z,12.50
2022-08-28T04:08:23.048Z,12.40
2022-08-28T04:12:30.852Z,12.40
2022-08-28T04:16:42.517Z,12.40
2022-08-28T04:20:58.998Z,12.40
2022-08-28T04:25:07.243Z,12.40
2022-08-28T04:29:14.305Z,12.40
2022-08-28T04:33:22.934Z,12.40
2022-08-28T04:37:29.704Z,12.30
2022-08-28T04:41:39.943Z,12.30
2022-08-28T04:45:46.770Z,12.30
2022-08-28T04:49:55.245Z,12.20
2022-08-28T04:54:03.372Z,12.10
2022-08-28T04:58:10.361Z,12.10
2022-08-28T05:02:17.132Z,12.10
2022-08-28T05:06:26.847Z,12.20
2022-08-28T05:10:35.608Z,12.20
2022-08-28T05:14:42.346Z,12.30
2022-08-28T05:18:49.843Z,12.30
2022-08-28T05:22:56.552Z,12.40
2022-08-28T05:27:03.694Z,12.40
2022-08-28T05:31:16.368Z,12.50
2022-08-28T05:35:24.352Z,12.60
2022-08-28T05:39:31.043Z,12.80
2022-08-28T05:43:38.344Z,12.90
2022-08-28T05:47:45.680Z,13.10
2022-08-28T05:51:52.486Z,13.20
2022-08-28T05:55:59.239Z,13.40
2022-08-28T06:00:07.259Z,13.60
2022-08-28T06:04:17.834Z,13.80
2022-08-28T06:08:24.714Z,13.90
2022-08-28T06:12:31.551Z,14.00
2022-08-28T06:16:41.577Z,14.20
2022-08-28T06:20:48.509Z,14.30
2022-08-28T06:24:55.258Z,14.50
2022-08-28T06:29:04.572Z,14.60
2022-08-28T06:33:12.355Z,14.80
2022-08-28T06:37:19.112Z,15.00
2022-08-28T06:41:27.303Z,15.20
2022-08-28T06:45:34.170Z,15.40
2022-08-28T06:49:41.475Z,15.50
2022-08-28T06:53:48.245Z,15.70
2022-08-28T06:57:54.975Z,15.80
2022-08-28T07:02:02.601Z,16.00
2022-08-28T07:06:11.026Z,16.20
2022-08-28T07:10:18.585Z,16.30
2022-08-28T07:14:25.887Z,16.40
2022-08-28T07:18:33.160Z,16.50
2022-08-28T07:22:43.763Z,16.60
2022-08-28T07:26:50.624Z,16.70
2022-08-28T07:31:20.027Z,16.70
2022-08-28T07:35:26.789Z,16.90
2022-08-28T07:39:34.708Z,17.00
2022-08-28T07:44:00.325Z,17.30
2022-08-28T07:48:11.945Z,17.40
2022-08-28T07:52:18.752Z,17.40
2022-08-28T07:56:28.713Z,17.60
2022-08-28T08:00:35.603Z,17.70
2022-08-28T08:04:42.409Z,17.90
2022-08-28T08:08:49.524Z,18.00
2022-08-28T08:12:56.308Z,18.10
2022-08-28T08:17:04.672Z,18.30
2022-08-28T08:21:16.628Z,18.40
2022-08-28T08:25:23.420Z,18.50
2022-08-28T08:29:35.607Z,18.70
2022-08-28T08:33:48.298Z,19.00
2022-08-28T08:37:55.020Z,19.40
2022-08-28T08:42:04.831Z,19.50
2022-08-28T08:46:11.587Z,19.20
2022-08-28T08:50:22.022Z,19.30
2022-08-28T08:54:29.189Z,19.70
2022-08-28T08:58:47.307Z,19.60
2022-08-28T09:03:04.162Z,19.60
2022-08-28T09:07:25.961Z,19.60
2022-08-28T09:11:32.793Z,19.30
2022-08-28T09:15:47.550Z,19.30
2022-08-28T09:19:57.803Z,19.30
2022-08-28T09:24:11.155Z,19.50
2022-08-28T09:28:26.351Z,19.40
2022-08-28T09:32:38.625Z,19.40
2022-08-28T09:36:45.877Z,20.10
2022-08-28T09:41:31.306Z,20.80
2022-08-28T09:45:38.429Z,20.90
2022-08-28T09:49:45.159Z,20.90
2022-08-28T09:53:51.837Z,21.50
2022-08-28T09:57:59.061Z,21.70
2022-08-28T10:02:40.155Z,20.90
2022-08-28T10:06:55.248Z,20.90
2022-08-28T10:11:16.467Z,21.40
2022-08-28T10:15:43.270Z,21.40
2022-08-28T10:20:11.188Z,20.90
2022-08-28T10:24:26.007Z,21.10
2022-08-28T10:29:17.156Z,21.70
2022-08-28T10:34:02.556Z,21.70
2022-08-28T10:38:14.583Z,21.70
2022-08-28T10:42:36.278Z,22.00
2022-08-28T10:46:46.115Z,21.70
2022-08-28T10:51:01.323Z,21.50
2022-08-28T10:55:22.610Z,21.80
2022-08-28T10:59:32.576Z,22.20
2022-08-28T11:03:49.344Z,22.20
2022-08-28T11:08:06.767Z,21.80
2022-08-28T11:12:19.932Z,21.70
2022-08-28T11:16:30.227Z,22.30
2022-08-28T11:20:39.333Z,22.10
2022-08-28T11:24:48.864Z,21.40
2022-08-28T11:28:56.352Z,21.40
2022-08-28T11:33:06.763Z,22.10
2022-08-28T11:37:41.359Z,22.10
2022-08-28T11:42:09.740Z,22.10
2022-08-28T11:46:19.008Z,22.60
2022-08-28T11:50:31.047Z,22.50
2022-08-28T11:54:56.646Z,21.60
2022-08-28T11:59:40.986Z,21.50
2022-08-28T12:04:01.932Z,21.40
2022-08-28T12:08:13.536Z,21.50
2022-08-28T12:12:23.333Z,22.10
2022-08-28T12:16:30.072Z,23.00
2022-08-28T12:21:07.349Z,23.00
2022-08-28T12:25:24.712Z,22.20
2022-08-28T12:29:38.607Z,22.00
2022-08-28T12:33:57.791Z,21.90
2022-08-28T12:38:09.254Z,22.40
2022-08-28T12:42:22.421Z,22.60
2022-08-28T12:46:35.148Z,23.50
2022-08-28T12:50:41.929Z,22.90
2022-08-28T12:54:50.763Z,22.30
2022-08-28T12:59:27.241Z,21.60
2022-08-28T13:03:34.671Z,21.40
2022-08-28T13:07:49.587Z,21.20
2022-08-28T13:11:56.429Z,21.20
2022-08-28T13:16:09.925Z,21.30
2022-08-28T13:20:25.532Z,21.90
2022-08-28T13:24:35.241Z,23.00
2022-08-28T13:28:43.048Z,23.40
2022-08-28T13:33:17.169Z,22.90
2022-08-28T13:37:58.077Z,23.20
2022-08-28T13:42:15.797Z,23.40
2022-08-28T13:46:22.514Z,23.40
2022-08-28T13:50:29.707Z,23.60
2022-08-28T13:54:36.999Z,24.00
2022-08-28T13:58:47.921Z,24.10
2022-08-28T14:03:23.120Z,24.00
2022-08-28T14:07:30.068Z,22.70
2022-08-28T14:11:36.889Z,22.50
2022-08-28T14:15:43.618Z,22.00
2022-08-28T14:19:50.355Z,21.90
2022-08-28T14:23:58.117Z,22.50
2022-08-28T14:28:04.863Z,22.80
2022-08-28T14:32:11.654Z,22.70
2022-08-28T14:36:24.653Z,22.70
2022-08-28T14:40:31.449Z,22.70
2022-08-28T14:44:38.204Z,22.90
2022-08-28T14:48:45.083Z,22.80
2022-08-28T14:52:51.809Z,23.10
2022-08-28T14:56:58.615Z,23.40
2022-08-28T15:01:05.844Z,22.80
2022-08-28T15:05:13.203Z,22.50
2022-08-28T15:09:19.948Z,22.60
2022-08-28T15:13:31.584Z,22.50
2022-08-28T15:17:38.538Z,22.30
2022-08-28T15:21:50.056Z,22.50
2022-08-28T15:25:56.779Z,22.40
2022-08-28T15:30:05.277Z,22.10
2022-08-28T15:34:18.807Z,22.00
2022-08-28T15:38:26.014Z,21.90
2022-08-28T15:42:33.022Z,22.00
2022-08-28T15:46:40.008Z,21.70
2022-08-28T15:50:46.719Z,21.10
2022-08-28T15:54:55.372Z,20.90
2022-08-28T15:59:02.110Z,20.60
2022-08-28T16:03:08.836Z,20.50
2022-08-28T16:07:16.205Z,20.50
2022-08-28T16:11:23.656Z,20.60
2022-08-28T16:15:30.476Z,20.60
2022-08-28T16:19:38.067Z,20.60
2022-08-28T16:23:44.817Z,20.70
2022-08-28T16:27:51.990Z,20.70
2022-08-28T16:31:58.861Z,20.80
2022-08-28T16:36:11.858Z,21.30
2022-08-28T16:40:18.654Z,20.80
2022-08-28T16:44:26.607Z,20.80
2022-08-28T16:48:33.364Z,20.70
2022-08-28T16:52:40.231Z,20.40
2022-08-28T16:56:47.205Z,20.20
2022-08-28T17:00:54.835Z,20.10
2022-08-28T17:05:03.214Z,20.10
2022-08-28T17:09:10.330Z,20.10
2022-08-28T17:13:17.019Z,20.10
2022-08-28T17:17:24.161Z,20.10
2022-08-28T17:21:49.643Z,20.00
2022-08-28T17:25:56.340Z,19.90
2022-08-28T17:30:05.058Z,19.90
2022-08-28T17:34:12.393Z,19.90
2022-08-28T17:38:19.116Z,19.70
2022-08-28T17:42:25.967Z,19.60
2022-08-28T17:46:37.457Z,19.60
2022-08-28T17:50:46.200Z,19.60
2022-08-28T17:54:53.377Z,19.40
2022-08-28T17:59:00.245Z,19.40
2022-08-28T18:03:07.669Z,19.30
2022-08-28T18:07:14.385Z,19.20
2022-08-28T18:11:21.097Z,19.10
2022-08-28T18:15:28.893Z,19.10
2022-08-28T18:19:35.593Z,19.00
2022-08-28T18:23:42.524Z,19.00
2022-08-28T18:27:49.385Z,19.00
2022-08-28T18:31:56.742Z,18.90
2022-08-28T18:36:08.387Z,18.80
2022-08-28T18:40:15.767Z,18.80
2022-08-28T18:44:24.417Z,18.60
2022-08-28T18:48:32.179Z,18.50
2022-08-28T18:52:38.926Z,18.40
2022-08-28T18:56:47.572Z,18.30
2022-08-28T19:00:56.739Z,18.30
2022-08-28T19:05:04.135Z,18.30
2022-08-28T19:09:11.670Z,18.20
2022-08-28T19:13:27.884Z,18.10
2022-08-28T19:17:39.471Z,18.00
2022-08-28T19:21:46.218Z,17.90
2022-08-28T19:25:52.917Z,17.80
2022-08-28T19:29:59.753Z,17.80
2022-08-28T19:34:08.043Z,17.80
2022-08-28T19:38:14.945Z,17.80
2022-08-28T19:42:22.723Z,17.70
2022-08-28T19:46:29.761Z,17.40
2022-08-28T19:50:37.843Z,17.40
2022-08-28T19:54:44.552Z,17.30
2022-08-28T19:58:51.276Z,17.20
2022-08-28T20:02:58.025Z,17.20
2022-08-28T20:07:04.887Z,17.20
2022-08-28T20:11:24.609Z,17.10
2022-08-28T20:15:31.387Z,17.00
2022-08-28T20:19:38.565Z,17.00
2022-08-28T20:23:45.569Z,17.00
2022-08-28T20:27:52.281Z,16.90
2022-08-28T20:31:59.212Z,16.90
2022-08-28T20:36:07.334Z,16.80
2022-08-28T20:40:22.311Z,16.70
2022-08-28T20:44:29.220Z,16.60
2022-08-28T20:48:36.037Z,16.50
2022-08-28T20:52:42.833Z,16.50
2022-08-28T20:56:50.940Z,16.50
2022-08-28T21:00:59.391Z,16.40
2022-08-28T21:05:07.026Z,16.50
2022-08-28T21:09:17.899Z,16.40
2022-08-28T21:13:24.648Z,16.30
2022-08-28T21:17:31.351Z,16.20
2022-08-28T21:21:38.406Z,16.20
2022-08-28T21:25:45.273Z,16.10
2022-08-28T21:29:55.608Z,16.10
2022-08-28T21:34:02.700Z,16.10
2022-08-28T21:38:09.463Z,16.10
2022-08-28T21:42:16.300Z,16.00
2022-08-28T21:46:23.360Z,16.00
2022-08-28T21:50:30.168Z,15.90
2022-08-28T21:54:38.799Z,15.80
2022-08-28T21:58:45.537Z,15.80
2022-08-28T22:02:52.653Z,15.70
2022-08-28T22:06:59.473Z,15.70
2022-08-28T22:11:07.085Z,15.60
2022-08-28T22:15:14.036Z,15.50
2022-08-28T22:19:20.753Z,15.40
2022-08-28T22:23:29.613Z,15.20
2022-08-28T22:27:36.409Z,15.20
2022-08-28T22:31:46.025Z,15.10
2022-08-28T22:35:53.325Z,15.00
2022-08-28T22:40:00.362Z,14.90
2022-08-28T22:44:07.696Z,14.80
2022-08-28T22:48:16.327Z,14.70
2022-08-28T22:52:23.642Z,14.60
2022-08-28T22:56:30.389Z,14.40
2022-08-28T23:00:38.823Z,14.40
2022-08-28T23:04:45.585Z,14.30
2022-08-28T23:08:58.818Z,14.30
2022-08-28T23:13:06.120Z,14.30
2022-08-28T23:17:12.875Z,14.20
2022-08-28T23:21:21.633Z,14.20
2022-08-28T23:25:29.628Z,14.10
2022-08-28T23:29:36.347Z,14.00
2022-08-28T23:33:43.673Z,14.00
2022-08-28T23:37:51.865Z,14.00
2022-08-28T23:41:58.908Z,13.90
2022-08-28T23:46:06.093Z,13.90
2022-08-28T23:50:19.124Z,13.90
2022-08-28T23:54:25.933Z,13.90
2022-08-28T23:58:32.769Z,13.80
